createdAt,value
2022-10-05T00:00:22.803Z,1.50
2022-10-05T00:03:11.459Z,1.40
2022-10-05T00:05:39.542Z,1.30
2022-10-05T00:08:21.532Z,1.50
2022-10-05T00:10:49.022Z,1.80
2022-10-05T00:13:20.122Z,1.60
2022-10-05T00:15:48.335Z,1.70
2022-10-05T00:18:21.048Z,1.60
2022-10-05T00:20:49.383Z,1.30
2022-10-05T00:23:21.067Z,1.20
2022-10-05T00:25:48.089Z,1.50
2022-10-05T00:28:21.469Z,1.50
2022-10-05T00:30:48.528Z,1.20
2022-10-05T00:33:15.485Z,1.30
2022-10-05T00:35:42.322Z,1.50
2022-10-05T00:38:09.165Z,1.30
2022-10-05T00:40:45.335Z,1.30
2022-10-05T00:43:21.396Z,1.30
2022-10-05T00:45:56.579Z,1.40
2022-10-05T00:49:00.781Z,1.30
2022-10-05T00:51:44.196Z,1.20
2022-10-05T00:54:20.358Z,1.20
2022-10-05T00:57:02.139Z,1.10
2022-10-05T00:59:41.279Z,1.20
2022-10-05T01:02:37.110Z,1.50
2022-10-05T01:05:41.935Z,1.40
2022-10-05T01:08:17.583Z,1.30
2022-10-05T01:11:25.806Z,1.20
2022-10-05T01:14:28.490Z,1.70
2022-10-05T01:17:22.988Z,2.00
2022-10-05T01:20:20.962Z,1.90
2022-10-05T01:23:09.410Z,1.70
2022-10-05T01:26:21.051Z,1.40
2022-10-05T01:28:57.309Z,1.20
2022-10-05T01:31:30.289Z,1.30
2022-10-05T01:34:19.038Z,1.20
2022-10-05T01:36:51.594Z,2.00
2022-10-05T01:40:03.518Z,1.80
2022-10-05T01:42:52.572Z,1.40
2022-10-05T01:45:37.432Z,1.40
2022-10-05T01:48:19.232Z,1.70
2022-10-05T01:50:51.905Z,1.50
2022-10-05T01:53:36.051Z,1.70
2022-10-05T01:56:05.964Z,1.90
2022-10-05T01:58:32.727Z,1.60
2022-10-05T02:01:06.730Z,1.30
2022-10-05T02:06:17.202Z,1.90
2022-10-05T02:08:53.878Z,1.50
2022-10-05T02:11:21.139Z,1.50
2022-10-05T02:14:01.185Z,1.60
2022-10-05T02:16:43.704Z,1.60
2022-10-05T02:19:20.584Z,1.40
2022-10-05T02:21:54.438Z,1.60
2022-10-05T02:24:26.759Z,1.30
2022-10-05T02:26:56.170Z,1.30
2022-10-05T02:29:27.091Z,1.20
2022-10-05T02:32:00.200Z,1.60
2022-10-05T02:34:36.894Z,1.90
2022-10-05T02:37:36.391Z,1.40
2022-10-05T02:40:19.418Z,1.40
2022-10-05T02:42:59.562Z,1.30
2022-10-05T02:45:35.090Z,1.30
2022-10-05T02:48:27.770Z,1.40
2022-10-05T02:51:10.176Z,1.60
2022-10-05T02:54:02.759Z,1.50
2022-10-05T02:56:52.395Z,1.40
2022-10-05T02:59:30.916Z,1.80
2022-10-05T03:02:03.159Z,1.00
2022-10-05T03:04:49.188Z,1.30
2022-10-05T03:07:41.428Z,1.70
2022-10-05T03:10:53.431Z,1.50
2022-10-05T03:13:29.650Z,1.30
2022-10-05T03:16:05.763Z,1.70
2022-10-05T03:19:12.129Z,1.40
2022-10-05T03:21:58.634Z,1.70
2022-10-05T03:24:43.735Z,1.50
2022-10-05T03:27:25.296Z,1.60
2022-10-05T03:30:09.372Z,1.50
2022-10-05T03:33:07.318Z,2.10
2022-10-05T03:36:07.489Z,1.50
2022-10-05T03:38:41.558Z,1.40
2022-10-05T03:41:26.561Z,1.30
2022-10-05T03:44:15.267Z,1.60
2022-10-05T03:47:09.570Z,1.80
2022-10-05T03:50:05.303Z,1.90
2022-10-05T03:52:46.068Z,1.90
2022-10-05T03:55:18.137Z,2.50
2022-10-05T03:57:48.473Z,1.80
2022-10-05T04:00:25.026Z,1.90
2022-10-05T04:03:16.659Z,2.40
2022-10-05T04:06:09.745Z,2.60
2022-10-05T04:08:51.917Z,2.40
2022-10-05T04:11:28.237Z,3.10
2022-10-05T04:14:22.664Z,2.70
2022-10-05T04:16:59.049Z,2.80
2022-10-05T04:20:09.203Z,2.20
2022-10-05T04:22:48.978Z,6.70
2022-10-05T04:25:30.642Z,3.70
2022-10-05T04:28:13.000Z,3.50
2022-10-05T04:30:45.334Z,5.20
2022-10-05T04:33:13.405Z,6.20
2022-10-05T04:35:49.875Z,5.30
2022-10-05T04:38:59.157Z,4.50
2022-10-05T04:42:07.133Z,4.20
2022-10-05T04:44:40.224Z,2.90
2022-10-05T04:47:13.621Z,3.50
2022-10-05T04:50:12.617Z,2.80
2022-10-05T04:52:57.597Z,2.20
2022-10-05T04:55:49.774Z,2.70
2022-10-05T04:58:40.054Z,2.60
2022-10-05T05:01:24.605Z,2.10
2022-10-05T05:04:21.013Z,2.30
2022-10-05T05:07:07.510Z,2.40
2022-10-05T05:09:47.730Z,2.50
2022-10-05T05:12:47.497Z,3.10
2022-10-05T05:15:38.913Z,3.70
2022-10-05T05:18:30.282Z,2.70
2022-10-05T05:21:18.881Z,3.30
2022-10-05T05:23:57.300Z,2.50
2022-10-05T05:26:40.122Z,2.80
2022-10-05T05:29:35.264Z,3.20
2022-10-05T05:32:28.794Z,2.50
2022-10-05T05:35:01.849Z,3.00
2022-10-05T05:37:45.019Z,2.60
2022-10-05T05:40:49.950Z,3.00
2022-10-05T05:43:48.129Z,2.10
2022-10-05T05:47:02.329Z,3.60
2022-10-05T05:50:09.992Z,3.30
2022-10-05T05:52:54.757Z,4.20
2022-10-05T05:55:39.113Z,3.30
2022-10-05T05:58:25.008Z,3.50
2022-10-05T06:00:56.451Z,3.30
2022-10-05T06:03:36.709Z,3.30
2022-10-05T06:06:13.724Z,2.60
2022-10-05T06:08:52.761Z,2.70
2022-10-05T06:12:02.377Z,3.00
2022-10-05T06:14:52.773Z,2.70
2022-10-05T06:17:38.665Z,3.00
2022-10-05T06:20:21.689Z,2.50
2022-10-05T06:22:50.749Z,2.50
2022-10-05T06:25:28.708Z,2.50
2022-10-05T06:28:08.704Z,2.40
2022-10-05T06:30:48.182Z,2.50
2022-10-05T06:33:37.447Z,2.80
2022-10-05T06:36:42.739Z,2.40
2022-10-05T06:39:41.281Z,2.90
2022-10-05T06:42:13.282Z,2.70
2022-10-05T06:45:53.948Z,3.20
2022-10-05T06:48:57.849Z,3.00
2022-10-05T06:52:02.474Z,2.30
2022-10-05T06:54:55.432Z,2.90
2022-10-05T06:57:49.521Z,2.90
2022-10-05T07:00:24.197Z,3.10
2022-10-05T07:03:09.964Z,3.30
2022-10-05T07:06:11.378Z,2.60
2022-10-05T07:08:59.943Z,2.50
2022-10-05T07:11:50.133Z,4.10
2022-10-05T07:14:25.886Z,4.30
2022-10-05T07:16:56.109Z,4.00
2022-10-05T07:19:44.670Z,5.00
2022-10-05T07:22:36.850Z,5.10
2022-10-05T07:25:20.186Z,3.00
2022-10-05T07:27:58.040Z,2.80
2022-10-05T07:30:24.975Z,2.20
2022-10-05T07:33:20.596Z,3.00
2022-10-05T07:36:27.695Z,2.30
2022-10-05T07:38:57.412Z,3.10
2022-10-05T07:41:27.521Z,2.20
2022-10-05T07:44:18.440Z,2.00
2022-10-05T07:46:56.337Z,4.40
2022-10-05T07:49:41.408Z,3.30
2022-10-05T07:52:21.667Z,1.60
2022-10-05T07:55:11.646Z,2.00
2022-10-05T07:57:53.861Z,2.00
2022-10-05T08:00:23.571Z,2.20
2022-10-05T08:03:10.736Z,6.30
2022-10-05T08:05:43.372Z,2.20
2022-10-05T08:08:10.031Z,2.20
2022-10-05T08:11:02.047Z,2.30
2022-10-05T08:13:32.813Z,2.20
2022-10-05T08:16:12.174Z,3.70
2022-10-05T08:18:48.378Z,3.60
2022-10-05T08:21:20.556Z,2.00
2022-10-05T08:23:59.578Z,2.30
2022-10-05T08:26:35.645Z,2.90
2022-10-05T08:29:34.022Z,1.80
2022-10-05T08:32:12.344Z,9.50
2022-10-05T08:35:00.390Z,2.90
2022-10-05T08:37:32.561Z,2.10
2022-10-05T08:40:32.582Z,1.00
2022-10-05T08:43:17.870Z,1.50
2022-10-05T08:46:17.309Z,1.20
2022-10-05T08:49:21.445Z,1.20
2022-10-05T08:52:06.445Z,1.30
2022-10-05T08:54:43.095Z,1.50
2022-10-05T08:57:47.777Z,2.30
2022-10-05T09:00:21.669Z,1.70
2022-10-05T09:03:13.215Z,1.60
2022-10-05T09:05:58.465Z,4.90
2022-10-05T09:08:53.369Z,2.30
2022-10-05T09:11:32.606Z,1.50
2022-10-05T09:14:18.395Z,1.70
2022-10-05T09:17:15.679Z,1.30
2022-10-05T09:19:52.913Z,1.30
2022-10-05T09:22:38.244Z,1.20
2022-10-05T09:25:16.651Z,1.10
2022-10-05T09:27:53.101Z,1.40
2022-10-05T09:30:40.998Z,1.20
2022-10-05T09:33:26.842Z,2.60
2022-10-05T09:36:02.581Z,1.90
2022-10-05T09:38:57.174Z,1.10
2022-10-05T09:41:53.068Z,1.60
2022-10-05T09:44:32.194Z,1.60
2022-10-05T09:47:21.206Z,1.30
2022-10-05T09:50:09.712Z,2.20
2022-10-05T09:52:58.146Z,1.40
2022-10-05T09:55:46.345Z,1.60
2022-10-05T09:58:32.863Z,2.40
2022-10-05T10:01:39.682Z,2.10
2022-10-05T10:04:25.525Z,1.50
2022-10-05T10:06:55.138Z,1.60
2022-10-05T10:09:41.127Z,1.80
2022-10-05T10:12:19.648Z,1.40
2022-10-05T10:15:15.268Z,1.40
2022-10-05T10:18:19.383Z,1.80
2022-10-05T10:21:21.768Z,4.10
2022-10-05T10:24:15.545Z,12.60
2022-10-05T10:26:56.415Z,2.30
2022-10-05T10:29:51.314Z,4.60
2022-10-05T10:32:40.125Z,13.60
2022-10-05T10:35:22.282Z,2.60
2022-10-05T10:38:02.168Z,2.10
2022-10-05T10:41:06.556Z,1.20
2022-10-05T10:43:57.735Z,1.60
2022-10-05T10:47:02.011Z,1.50
2022-10-05T10:50:06.459Z,1.30
2022-10-05T10:55:38.438Z,1.40
2022-10-05T10:58:17.887Z,1.20
2022-10-05T11:01:15.071Z,2.50
2022-10-05T11:04:19.730Z,2.70
2022-10-05T11:10:00.233Z,1.40
2022-10-05T11:12:29.831Z,1.40
2022-10-05T11:15:12.960Z,1.50
2022-10-05T11:17:55.364Z,1.30
2022-10-05T11:20:25.196Z,1.60
2022-10-05T11:22:55.203Z,1.20
2022-10-05T11:26:01.165Z,1.20
2022-10-05T11:28:39.853Z,1.10
2022-10-05T11:31:35.013Z,1.10
2022-10-05T11:34:28.088Z,1.20
2022-10-05T11:37:38.172Z,1.30
2022-10-05T11:40:43.055Z,1.40
2022-10-05T11:43:58.578Z,1.30
2022-10-05T11:46:53.484Z,1.30
2022-10-05T11:49:35.369Z,1.70
2022-10-05T11:52:25.325Z,1.40
2022-10-05T11:55:23.321Z,1.30
2022-10-05T11:58:07.141Z,1.40
2022-10-05T12:00:46.703Z,1.30
2022-10-05T12:03:27.227Z,1.20
2022-10-05T12:06:39.247Z,1.40
2022-10-05T12:09:20.943Z,1.30
2022-10-05T12:12:18.299Z,1.40
2022-10-05T12:15:17.316Z,1.60
2022-10-05T12:18:08.003Z,1.30
2022-10-05T12:21:32.506Z,2.10
2022-10-05T12:24:13.064Z,1.10
2022-10-05T12:26:44.219Z,1.40
2022-10-05T12:29:37.476Z,1.20
2022-10-05T12:32:08.518Z,1.80
2022-10-05T12:35:01.454Z,1.60
2022-10-05T12:38:04.109Z,1.20
2022-10-05T12:41:05.524Z,1.50
2022-10-05T12:43:32.569Z,3.00
2022-10-05T12:46:36.410Z,1.60
2022-10-05T12:49:41.422Z,1.40
2022-10-05T12:52:27.722Z,1.60
2022-10-05T12:55:10.030Z,1.30
2022-10-05T12:58:11.172Z,1.60
2022-10-05T13:00:51.092Z,3.60
2022-10-05T13:03:25.677Z,1.70
2022-10-05T13:06:05.214Z,1.30
2022-10-05T13:08:59.075Z,1.10
2022-10-05T13:11:40.975Z,1.30
2022-10-05T13:14:18.059Z,1.10
2022-10-05T13:17:14.018Z,1.30
2022-10-05T13:20:03.253Z,1.80
2022-10-05T13:22:43.104Z,1.50
2022-10-05T13:25:13.140Z,1.30
2022-10-05T13:28:25.367Z,1.30
2022-10-05T13:31:04.607Z,1.50
2022-10-05T13:33:31.581Z,2.10
2022-10-05T13:36:09.420Z,2.10
2022-10-05T13:38:59.711Z,1.40
2022-10-05T13:41:29.313Z,1.20
2022-10-05T13:44:25.546Z,1.10
2022-10-05T13:47:02.536Z,1.10
2022-10-05T13:49:42.121Z,1.20
2022-10-05T13:52:09.237Z,1.30
2022-10-05T13:54:50.632Z,1.20
2022-10-05T13:57:23.819Z,1.20
2022-10-05T13:59:58.056Z,1.00
2022-10-05T14:02:39.405Z,7.60
2022-10-05T14:05:18.438Z,2.70
2022-10-05T14:08:16.338Z,1.80
2022-10-05T14:10:46.543Z,2.80
2022-10-05T14:13:26.083Z,2.30
2022-10-05T14:16:16.077Z,2.30
2022-10-05T14:19:14.862Z,6.30
2022-10-05T14:21:54.296Z,1.70
2022-10-05T14:24:43.220Z,1.50
2022-10-05T14:27:22.289Z,3.00
2022-10-05T14:30:23.194Z,2.00
2022-10-05T14:33:03.805Z,2.10
2022-10-05T14:35:52.256Z,6.10
2022-10-05T14:38:29.596Z,2.10
2022-10-05T14:41:16.940Z,1.80
2022-10-05T14:44:03.377Z,2.50
2022-10-05T14:46:32.406Z,2.00
2022-10-05T14:49:21.847Z,2.60
2022-10-05T14:51:50.532Z,2.70
2022-10-05T14:54:40.719Z,2.80
2022-10-05T14:57:24.870Z,3.50
2022-10-05T15:00:11.180Z,4.70
2022-10-05T15:03:07.404Z,4.70
2022-10-05T15:05:52.098Z,4.60
2022-10-05T15:08:41.037Z,3.20
2022-10-05T15:11:19.856Z,2.00
2022-10-05T15:13:48.248Z,2.70
2022-10-05T15:16:24.431Z,1.90
2022-10-05T15:19:07.020Z,1.70
2022-10-05T15:21:49.012Z,1.50
2022-10-05T15:24:23.955Z,1.70
2022-10-05T15:26:53.285Z,1.30
2022-10-05T15:29:49.819Z,1.50
2022-10-05T15:32:34.152Z,1.40
2022-10-05T15:35:35.609Z,1.40
2022-10-05T15:38:20.271Z,1.80
2022-10-05T15:40:54.311Z,1.60
2022-10-05T15:43:22.973Z,2.30
2022-10-05T15:46:05.248Z,6.00
2022-10-05T15:49:05.232Z,7.90
2022-10-05T15:51:54.975Z,8.80
2022-10-05T15:54:49.393Z,9.70
2022-10-05T15:57:44.992Z,16.20
2022-10-05T16:00:19.040Z,17.40
2022-10-05T16:02:55.023Z,15.90
2022-10-05T16:06:02.562Z,16.50
2022-10-05T16:08:50.810Z,19.70
2022-10-05T16:11:57.189Z,19.30
2022-10-05T16:14:48.601Z,21.90
2022-10-05T16:17:40.434Z,29.80
2022-10-05T16:20:23.140Z,26.70
2022-10-05T16:23:18.146Z,23.20
2022-10-05T16:26:13.396Z,16.30
2022-10-05T16:28:59.253Z,20.00
2022-10-05T16:32:07.880Z,20.80
2022-10-05T16:34:56.034Z,20.90
2022-10-05T16:37:44.883Z,19.80
2022-10-05T16:40:51.769Z,23.70
2022-10-05T16:43:52.645Z,22.30
2022-10-05T16:46:36.833Z,21.90
2022-10-05T16:49:41.200Z,19.50
2022-10-05T16:52:15.485Z,19.70
2022-10-05T16:54:53.514Z,19.40
2022-10-05T16:57:32.023Z,19.00
2022-10-05T17:00:15.992Z,26.60
2022-10-05T17:02:52.701Z,33.60
2022-10-05T17:05:43.964Z,43.70
2022-10-05T17:08:39.076Z,91.10
2022-10-05T17:11:29.166Z,50.30
2022-10-05T17:14:16.403Z,56.40
2022-10-05T17:16:43.086Z,70.90
2022-10-05T17:19:21.334Z,65.30
2022-10-05T17:22:00.193Z,42.00
2022-10-05T17:24:35.315Z,37.50
2022-10-05T17:27:27.708Z,45.50
2022-10-05T17:30:15.587Z,51.10
2022-10-05T17:33:04.132Z,48.60
2022-10-05T17:35:39.989Z,44.10
2022-10-05T17:38:41.379Z,44.60
2022-10-05T17:41:30.728Z,40.10
2022-10-05T17:44:06.584Z,28.00
2022-10-05T17:46:38.225Z,21.60
2022-10-05T17:49:11.423Z,18.10
2022-10-05T17:51:56.838Z,15.90
2022-10-05T17:55:10.034Z,12.60
2022-10-05T17:57:39.138Z,10.40
2022-10-05T18:00:24.620Z,10.60
2022-10-05T18:02:56.108Z,10.20
2022-10-05T18:05:30.596Z,11.00
2022-10-05T18:08:12.802Z,11.10
2022-10-05T18:11:10.674Z,10.90
2022-10-05T18:13:49.572Z,10.20
2022-10-05T18:16:54.263Z,11.80
2022-10-05T18:19:22.741Z,13.00
2022-10-05T18:22:03.087Z,11.50
2022-10-05T18:24:40.973Z,10.80
2022-10-05T18:27:30.777Z,7.00
2022-10-05T18:30:22.804Z,14.30
2022-10-05T18:33:24.781Z,11.70
2022-10-05T18:36:09.429Z,11.70
2022-10-05T18:38:48.656Z,13.40
2022-10-05T18:41:26.344Z,10.00
2022-10-05T18:44:14.511Z,10.30
2022-10-05T18:47:01.543Z,6.40
2022-10-05T18:49:51.306Z,6.50
2022-10-05T18:52:43.548Z,6.90
2022-10-05T18:55:32.312Z,6.20
2022-10-05T18:58:17.370Z,6.40
2022-10-05T19:00:59.601Z,5.90
2022-10-05T19:03:52.614Z,5.80
2022-10-05T19:06:23.806Z,7.40
2022-10-05T19:09:00.795Z,7.40
2022-10-05T19:11:34.272Z,7.80
2022-10-05T19:14:15.966Z,6.00
2022-10-05T19:17:19.257Z,6.70
2022-10-05T19:20:06.471Z,11.10
2022-10-05T19:23:01.599Z,8.30
2022-10-05T19:26:02.843Z,4.80
2022-10-05T19:28:36.806Z,4.10
2022-10-05T19:31:41.799Z,4.30
2022-10-05T19:34:37.742Z,4.50
2022-10-05T19:37:14.294Z,3.80
2022-10-05T19:39:54.552Z,3.40
2022-10-05T19:42:40.845Z,3.70
2022-10-05T19:45:24.382Z,4.50
2022-10-05T19:48:03.418Z,4.70
2022-10-05T19:50:33.419Z,5.70
2022-10-05T19:53:16.597Z,5.90
2022-10-05T19:55:46.654Z,6.40
2022-10-05T19:58:21.108Z,7.30
2022-10-05T20:01:04.541Z,6.70
2022-10-05T20:03:36.740Z,5.10
2022-10-05T20:06:06.269Z,3.80
2022-10-05T20:08:42.553Z,4.50
2022-10-05T20:11:16.078Z,4.00
2022-10-05T20:13:46.656Z,3.50
2022-10-05T20:16:37.417Z,3.60
2022-10-05T20:19:43.590Z,4.30
2022-10-05T20:22:25.964Z,4.40
2022-10-05T20:25:06.053Z,4.20
2022-10-05T20:27:38.896Z,4.70
2022-10-05T20:30:07.622Z,6.50
2022-10-05T20:32:34.259Z,4.30
2022-10-05T20:35:01.317Z,2.90
2022-10-05T20:37:28.160Z,3.60
2022-10-05T20:39:55.009Z,5.90
2022-10-05T20:42:23.380Z,4.80
2022-10-05T20:44:55.800Z,6.10
2022-10-05T20:47:24.564Z,8.60
2022-10-05T20:49:52.892Z,15.60
2022-10-05T20:52:20.398Z,18.50
2022-10-05T20:54:47.425Z,6.70
2022-10-05T20:57:14.192Z,4.20
2022-10-05T20:59:41.025Z,8.60
2022-10-05T21:02:07.861Z,24.90
2022-10-05T21:04:40.254Z,5.80
2022-10-05T21:07:08.116Z,6.90
2022-10-05T21:09:37.846Z,5.20
2022-10-05T21:12:04.667Z,5.20
2022-10-05T21:14:33.696Z,5.00
2022-10-05T21:17:01.530Z,6.00
2022-10-05T21:19:29.092Z,4.90
2022-10-05T21:22:02.073Z,5.20
2022-10-05T21:24:28.927Z,4.10
2022-10-05T21:26:57.032Z,4.60
2022-10-05T21:29:23.845Z,6.00
2022-10-05T21:31:50.741Z,7.00
2022-10-05T21:34:17.639Z,12.10
2022-10-05T21:36:44.244Z,10.30
2022-10-05T21:39:11.031Z,6.70
2022-10-05T21:41:37.871Z,14.50
2022-10-05T21:44:06.354Z,6.70
2022-10-05T21:46:35.549Z,5.60
2022-10-05T21:49:03.268Z,4.40
2022-10-05T21:51:30.153Z,5.10
2022-10-05T21:54:06.308Z,5.70
2022-10-05T21:56:36.623Z,4.30
2022-10-05T21:59:07.062Z,7.00
2022-10-05T22:01:35.562Z,5.50
2022-10-05T22:04:04.350Z,4.70
2022-10-05T22:06:32.119Z,3.00
2022-10-05T22:08:59.363Z,3.40
2022-10-05T22:11:27.643Z,5.90
2022-10-05T22:14:01.588Z,5.00
2022-10-05T22:16:35.957Z,6.40
2022-10-05T22:19:05.394Z,5.50
2022-10-05T22:21:37.342Z,5.60
2022-10-05T22:24:04.592Z,3.10
2022-10-05T22:26:32.170Z,4.60
2022-10-05T22:29:01.256Z,2.60
2022-10-05T22:31:28.183Z,4.10
2022-10-05T22:33:55.049Z,4.00
2022-10-05T22:36:22.395Z,4.90
2022-10-05T22:38:49.444Z,3.50
2022-10-05T22:41:17.928Z,3.60
2022-10-05T22:43:49.372Z,2.60
2022-10-05T22:46:16.808Z,2.70
2022-10-05T22:48:44.455Z,2.90
2022-10-05T22:51:12.380Z,4.90
2022-10-05T22:53:39.222Z,7.40
2022-10-05T22:56:09.028Z,7.70
2022-10-05T22:58:36.805Z,8.10
2022-10-05T23:01:05.763Z,8.10
2022-10-05T23:03:33.572Z,7.70
2022-10-05T23:06:03.928Z,7.70
2022-10-05T23:08:32.853Z,8.30
2022-10-05T23:11:12.549Z,8.70
2022-10-05T23:13:40.394Z,10.90
2022-10-05T23:16:16.068Z,9.40
2022-10-05T23:18:43.926Z,9.30
2022-10-05T23:21:11.265Z,6.90
2022-10-05T23:23:40.369Z,6.70
2022-10-05T23:26:09.974Z,7.70
2022-10-05T23:28:46.041Z,6.60
2022-10-05T23:31:16.025Z,8.40
2022-10-05T23:33:43.421Z,9.60
2022-10-05T23:36:22.243Z,8.40
2022-10-05T23:38:50.313Z,8.00
2022-10-05T23:41:19.316Z,7.10
2022-10-05T23:43:46.862Z,6.70
2022-10-05T23:46:14.093Z,6.80
2022-10-05T23:48:40.970Z,6.80
2022-10-05T23:51:10.306Z,6.60
2022-10-05T23:53:37.417Z,5.80
2022-10-05T23:56:04.779Z,6.20
2022-10-05T23:58:32.114Z,7.30
